AirNav   ProFlight Series 2 Aviation Headset
 
 534 users online  

MY21 Kollar's Shoreview Marine Seaplane Base
Shoreview, Minnesota, USA

GOING TO SHOREVIEW?


FAA INFORMATION EFFECTIVE 16 JULY 2020

Location

FAA Identifier: MY21
Lat/Long: 45-01-59.8760N 093-07-30.7950W
45-01.997933N 093-07.513250W
45.0332989,-93.1252208
(estimated)
Elevation: 886 ft. / 270 m (estimated)
Variation: 03E (1985)
Time zone: UTC -5 (UTC -6 during Standard Time)
Zip code: 55117

Seaplane Base Operations

Seaplane Base use: Private use, PERSONAL USE.
Activation date: 10/1980
Control tower: no
ARTCC: MINNEAPOLIS CENTER
FSS: PRINCETON FLIGHT SERVICE STATION
Attendance: UNATNDD
Wind indicator: no
Segmented circle: no

Seaplane Base Communications

WX ASOS at STP (7 nm SE): 118.35 (651-312-8888)
WX AWOS-3 at ANE (8 nm NW): 120.625 (763-780-9025)
WX ASOS at MIC (10 nm W): 125.7 (763-531-2343)
WX ASOS at MSP (10 nm SW): 135.35 (612-713-4174)
WX AWOS-3 at SGS (11 nm S): 119.425 (651-457-8120)
WX AWOS-3 at 21D (12 nm E): 120.075 (651-779-5949)
WX ASOS at FCM (19 nm SW): 124.9 (952-941-4156)

Nearby radio navigation aids

VOR radial/distance  VOR name  Freq  Var
MSPr028/9.5MINNEAPOLIS VOR/DME115.3002E
GEPr117/12.5GOPHER VORTAC117.3006E
FCMr046/18.4FLYING CLOUD VOR/DME117.7001E
FGTr360/24.3FARMINGTON VORTAC115.7006E

 
NDB name  Hdg/Dist  Freq  Var  ID
HOPEY318/12.440003EPPI .--. .--. ..
CAMBRIDGE169/32.035001ECBG -.-. -... --.
PRINCETON144/37.836803EPNM .--. -. --

Seaplane Base Services

Parking: buoy

Runway Information

Runway NE/SW

Dimensions: length 7000 ft. / 2134 m, width unknown
Surface: water
RUNWAY NE  RUNWAY SW
Traffic pattern: leftleft
Obstructions: nonepline

Runway NNE/SSW

Dimensions: length 6500 ft. / 1981 m, width unknown
Surface: water
RUNWAY NNE  RUNWAY SSW
Traffic pattern: leftleft
Obstructions: nonepline

Seaplane Base Ownership and Management from official FAA records

Ownership: Privately-owned
Owner: JOLENE R.M. STIGLICH
454 WEST HORSESHOE DRIVE
SHOREVIEW, MN 55126
Phone 651-484-7331
CELL: 651-485-3707
Manager: JOLENE R. M. STIGLICH
454 WEST HORSESHOE DRIVE
SHOREVIEW, MN 55126
Phone 651-484-7331

Seaplane Base Operational Statistics

Aircraft based on the field: 1
Single engine airplanes: 1
    

Additional Remarks

OWNER DESIRES ARPT NOT TO BE CHARTED.
FOR CD CTC MINNEAPOLIS ARTCC AT 651-463-5588.

Instrument Procedures

There are no published instrument procedures at MY21.

Some nearby airports with instrument procedures:

KSTP - St Paul Downtown Airport Holman Field (7 nm SE)
KANE - Anoka County-Blaine Airport (Janes Field) (8 nm NW)
KMIC - Crystal Airport (10 nm W)
KMSP - Minneapolis-St Paul International/Wold-Chamberlain Airport (10 nm SW)
KSGS - South St Paul Municipal Airport-Richard E Fleming Field (11 nm S)
21D - Lake Elmo Airport (12 nm E)
KFCM - Flying Cloud Airport (19 nm SW)
 
Loc | Ops | Rwys | IFR | FBO | Links
Com | Nav | Svcs | Stats | Notes
Area around MY21 (Kollar's Shoreview Marine Seaplane Base)
 
Road maps at: MapQuest Bing Google
 
Aerial photo
No photo
 
Sectional chart

 
Airport distance calculator
Flying to Kollar's Shoreview Marine Seaplane Base? Find the distance to fly.

From to MY21

Sunrise and sunset
Times for 09-Aug-2020
 Local
(UTC-5)
 Zulu
(UTC)
Morning civil twilight05:3710:37
Sunrise06:0911:09
Sunset20:2601:26
Evening civil twilight20:5901:59

Current date and time
Zulu (UTC)  09-Aug-2020 11:17:57
Local (UTC-5)  09-Aug-2020 06:17:57
 
METAR
KSTP 
7nm SE 
091103Z AUTO 12005KT 10SM BKN029 BKN049 21/18 A2996 RMK AO2 T02110178
KANE 
7nm NW 
091055Z AUTO 16005KT 10SM SCT029 SCT033 SCT042 22/20 A2995 RMK AO2
KMIC 
10nm W 
091053Z AUTO 16005KT 10SM FEW055 21/18 A2994 RMK AO2 SLP135 T02110183 $
KMSP 
10nm SW 
091053Z 13003KT 10SM FEW027 SCT049 OVC150 22/18 A2996 RMK AO2 SLP141 T02170183
KSGS 
11nm S 
091055Z AUTO 00000KT 10SM SCT028 SCT050 21/18 A2997 RMK AO2 T02080182
K21D 
12nm E 
091055Z AUTO 20004KT 10SM SCT027 SCT031 SCT041 19/18 A2999 RMK AO2 LTG DSNT NE
KFCM 
19nm SW 
091053Z 17006KT 10SM FEW085 21/18 A2995 RMK AO2 SLP139 T02110183
TAF
KMSP 
10nm SW 
090826Z 0908/1012 17006KT P6SM SCT250 FM091200 16007KT P6SM VCSH BKN030 FM091600 17008KT P6SM BKN040 TEMPO 0916/0920 3SM TS BKN020CB FM100400 33005KT P6SM SCT030 OVC250
NOTAMs
Click for the latest NOTAMs
NOTAMs are issued by the DoD/FAA and will open in a separate window not controlled by AirNav.

 

 
 

Would you like to see your business listed on this page?

 If your business provides an interesting product or service to pilots, flight crews, aircraft, or users of the Kollar's Shoreview Marine Seaplane Base, you should consider listing it here.  To start the listing process, click on the button below
 
Add a business
 

Other Pages about Kollar's Shoreview Marine Seaplane Base

Update a link
 
Copyright © AirNav, LLC. All rights reserved. Privacy Policy  Contact